sensor_id;sensor_type;location;lat;lon;timestamp;P1;durP1;ratioP1;P2;durP2;ratioP2
67248;SDS011;63247;54.300;18.592;2024-03-25T00:01:06;20.57;;;8.50;;
67248;SDS011;63247;54.300;18.592;2024-03-25T00:03:31;20.00;;;8.07;;
67248;SDS011;63247;54.300;18.592;2024-03-25T00:05:57;21.33;;;8.27;;
67248;SDS011;63247;54.300;18.592;2024-03-25T00:08:22;20.77;;;8.07;;
67248;SDS011;63247;54.300;18.592;2024-03-25T00:10:48;21.55;;;8.15;;
67248;SDS011;63247;54.300;18.592;2024-03-25T00:13:13;20.40;;;8.97;;
67248;SDS011;63247;54.300;18.592;2024-03-25T00:15:39;19.55;;;7.97;;
67248;SDS011;63247;54.300;18.592;2024-03-25T00:18:05;23.70;;;9.17;;
67248;SDS011;63247;54.300;18.592;2024-03-25T00:20:30;21.43;;;9.40;;
67248;SDS011;63247;54.300;18.592;2024-03-25T00:22:55;23.63;;;9.48;;
67248;SDS011;63247;54.300;18.592;2024-03-25T00:25:21;25.77;;;9.03;;
67248;SDS011;63247;54.300;18.592;2024-03-25T00:27:46;21.00;;;8.17;;
67248;SDS011;63247;54.300;18.592;2024-03-25T00:30:12;22.02;;;8.15;;
67248;SDS011;63247;54.300;18.592;2024-03-25T00:32:38;22.00;;;8.13;;
67248;SDS011;63247;54.300;18.592;2024-03-25T00:35:04;19.83;;;8.40;;
67248;SDS011;63247;54.300;18.592;2024-03-25T00:37:29;18.60;;;7.83;;
67248;SDS011;63247;54.300;18.592;2024-03-25T00:39:55;19.13;;;8.10;;
67248;SDS011;63247;54.300;18.592;2024-03-25T00:42:21;20.40;;;8.20;;
67248;SDS011;63247;54.300;18.592;2024-03-25T00:44:46;19.20;;;8.03;;
67248;SDS011;63247;54.300;18.592;2024-03-25T00:47:11;17.97;;;7.73;;
67248;SDS011;63247;54.300;18.592;2024-03-25T00:49:37;17.70;;;7.88;;
67248;SDS011;63247;54.300;18.592;2024-03-25T00:52:03;22.43;;;9.03;;
67248;SDS011;63247;54.300;18.592;2024-03-25T00:54:29;25.33;;;9.98;;
67248;SDS011;63247;54.300;18.592;2024-03-25T00:56:55;22.00;;;9.43;;
67248;SDS011;63247;54.300;18.592;2024-03-25T00:59:20;22.40;;;9.52;;
67248;SDS011;63247;54.300;18.592;2024-03-25T01:01:45;18.75;;;8.30;;
67248;SDS011;63247;54.300;18.592;2024-03-25T01:04:11;18.77;;;7.70;;
67248;SDS011;63247;54.300;18.592;2024-03-25T01:06:36;20.10;;;7.87;;
67248;SDS011;63247;54.300;18.592;2024-03-25T01:09:02;17.77;;;7.95;;
67248;SDS011;63247;54.300;18.592;2024-03-25T01:11:29;25.63;;;9.03;;
67248;SDS011;63247;54.300;18.592;2024-03-25T01:13:55;22.67;;;8.98;;
67248;SDS011;63247;54.300;18.592;2024-03-25T01:16:21;22.48;;;8.90;;
67248;SDS011;63247;54.300;18.592;2024-03-25T01:18:47;23.73;;;9.23;;
67248;SDS011;63247;54.300;18.592;2024-03-25T01:21:12;21.00;;;8.70;;
67248;SDS011;63247;54.300;18.592;2024-03-25T01:23:37;22.73;;;9.32;;
67248;SDS011;63247;54.300;18.592;2024-03-25T01:26:03;22.03;;;9.20;;
67248;SDS011;63247;54.300;18.592;2024-03-25T01:28:28;22.17;;;9.03;;
67248;SDS011;63247;54.300;18.592;2024-03-25T01:30:54;21.77;;;9.03;;
67248;SDS011;63247;54.300;18.592;2024-03-25T01:33:19;25.00;;;10.27;;
67248;SDS011;63247;54.300;18.592;2024-03-25T01:35:45;23.85;;;9.77;;
67248;SDS011;63247;54.300;18.592;2024-03-25T01:38:10;21.77;;;8.97;;
67248;SDS011;63247;54.300;18.592;2024-03-25T01:40:36;22.43;;;9.00;;
67248;SDS011;63247;54.300;18.592;2024-03-25T01:43:02;24.57;;;8.80;;
67248;SDS011;63247;54.300;18.592;2024-03-25T01:45:34;21.00;;;8.50;;
67248;SDS011;63247;54.300;18.592;2024-03-25T01:48:07;21.33;;;9.20;;
67248;SDS011;63247;54.300;18.592;2024-03-25T01:50:39;21.88;;;9.02;;
67248;SDS011;63247;54.300;18.592;2024-03-25T01:53:08;21.38;;;8.68;;
67248;SDS011;63247;54.300;18.592;2024-03-25T01:55:36;22.90;;;9.33;;
67248;SDS011;63247;54.300;18.592;2024-03-25T01:58:02;21.63;;;9.32;;
67248;SDS011;63247;54.300;18.592;2024-03-25T02:00:29;21.00;;;9.90;;
67248;SDS011;63247;54.300;18.592;2024-03-25T02:02:56;22.02;;;10.00;;
67248;SDS011;63247;54.300;18.592;2024-03-25T02:05:22;24.13;;;10.45;;
67248;SDS011;63247;54.300;18.592;2024-03-25T02:07:48;25.20;;;9.73;;
67248;SDS011;63247;54.300;18.592;2024-03-25T02:10:14;24.40;;;9.13;;
67248;SDS011;63247;54.300;18.592;2024-03-25T02:12:43;20.65;;;9.23;;
67248;SDS011;63247;54.300;18.592;2024-03-25T02:15:11;23.20;;;9.30;;
67248;SDS011;63247;54.300;18.592;2024-03-25T02:17:38;20.63;;;8.60;;
67248;SDS011;63247;54.300;18.592;2024-03-25T02:20:03;20.65;;;8.65;;
67248;SDS011;63247;54.300;18.592;2024-03-25T02:22:36;21.10;;;8.93;;
67248;SDS011;63247;54.300;18.592;2024-03-25T02:25:02;19.25;;;7.90;;
67248;SDS011;63247;54.300;18.592;2024-03-25T02:27:31;22.08;;;8.45;;
67248;SDS011;63247;54.300;18.592;2024-03-25T02:30:07;21.67;;;8.83;;
67248;SDS011;63247;54.300;18.592;2024-03-25T02:32:34;20.73;;;8.60;;
67248;SDS011;63247;54.300;18.592;2024-03-25T02:35:00;20.58;;;8.95;;
67248;SDS011;63247;54.300;18.592;2024-03-25T02:37:28;20.27;;;8.77;;
67248;SDS011;63247;54.300;18.592;2024-03-25T02:39:55;23.13;;;9.03;;
67248;SDS011;63247;54.300;18.592;2024-03-25T02:42:23;24.95;;;9.88;;
67248;SDS011;63247;54.300;18.592;2024-03-25T02:44:49;20.73;;;9.10;;
67248;SDS011;63247;54.300;18.592;2024-03-25T02:47:15;23.77;;;9.30;;
67248;SDS011;63247;54.300;18.592;2024-03-25T02:49:42;21.67;;;9.02;;
67248;SDS011;63247;54.300;18.592;2024-03-25T02:52:08;23.27;;;9.00;;
67248;SDS011;63247;54.300;18.592;2024-03-25T02:54:33;22.63;;;9.25;;
67248;SDS011;63247;54.300;18.592;2024-03-25T02:56:59;23.50;;;9.33;;
67248;SDS011;63247;54.300;18.592;2024-03-25T02:59:24;25.43;;;9.80;;
67248;SDS011;63247;54.300;18.592;2024-03-25T03:01:49;23.13;;;9.10;;
67248;SDS011;63247;54.300;18.592;2024-03-25T03:04:15;22.80;;;9.23;;
67248;SDS011;63247;54.300;18.592;2024-03-25T03:06:40;23.37;;;9.93;;
67248;SDS011;63247;54.300;18.592;2024-03-25T03:09:05;22.03;;;9.47;;
67248;SDS011;63247;54.300;18.592;2024-03-25T03:11:31;24.75;;;10.35;;
67248;SDS011;63247;54.300;18.592;2024-03-25T03:13:57;27.30;;;10.47;;
67248;SDS011;63247;54.300;18.592;2024-03-25T03:16:22;26.43;;;10.30;;
67248;SDS011;63247;54.300;18.592;2024-03-25T03:18:48;23.70;;;10.03;;
67248;SDS011;63247;54.300;18.592;2024-03-25T03:21:13;25.02;;;10.15;;
67248;SDS011;63247;54.300;18.592;2024-03-25T03:23:38;27.97;;;11.23;;
67248;SDS011;63247;54.300;18.592;2024-03-25T03:26:04;26.93;;;10.90;;
67248;SDS011;63247;54.300;18.592;2024-03-25T03:28:29;25.33;;;10.60;;
67248;SDS011;63247;54.300;18.592;2024-03-25T03:30:54;27.03;;;10.57;;
67248;SDS011;63247;54.300;18.592;2024-03-25T03:33:20;28.13;;;11.20;;
67248;SDS011;63247;54.300;18.592;2024-03-25T03:35:46;26.05;;;10.43;;
67248;SDS011;63247;54.300;18.592;2024-03-25T03:38:11;25.30;;;10.77;;
67248;SDS011;63247;54.300;18.592;2024-03-25T03:40:37;28.53;;;11.13;;
67248;SDS011;63247;54.300;18.592;2024-03-25T03:43:02;28.60;;;11.00;;
67248;SDS011;63247;54.300;18.592;2024-03-25T03:45:32;27.27;;;11.23;;
67248;SDS011;63247;54.300;18.592;2024-03-25T03:47:59;27.73;;;11.07;;
67248;SDS011;63247;54.300;18.592;2024-03-25T03:50:24;29.03;;;11.83;;
67248;SDS011;63247;54.300;18.592;2024-03-25T03:52:49;30.80;;;11.47;;
67248;SDS011;63247;54.300;18.592;2024-03-25T03:55:15;33.60;;;12.47;;
67248;SDS011;63247;54.300;18.592;2024-03-25T03:57:40;31.45;;;12.73;;
67248;SDS011;63247;54.300;18.592;2024-03-25T04:00:07;31.33;;;12.63;;
67248;SDS011;63247;54.300;18.592;2024-03-25T04:02:34;29.23;;;12.27;;
67248;SDS011;63247;54.300;18.592;2024-03-25T04:04:59;31.77;;;12.50;;
67248;SDS011;63247;54.300;18.592;2024-03-25T04:07:25;30.80;;;11.63;;
67248;SDS011;63247;54.300;18.592;2024-03-25T04:09:53;29.95;;;12.38;;
67248;SDS011;63247;54.300;18.592;2024-03-25T04:12:19;33.10;;;12.60;;
67248;SDS011;63247;54.300;18.592;2024-03-25T04:14:46;34.03;;;13.07;;
67248;SDS011;63247;54.300;18.592;2024-03-25T04:17:12;32.83;;;13.10;;
67248;SDS011;63247;54.300;18.592;2024-03-25T04:19:38;34.10;;;15.57;;
67248;SDS011;63247;54.300;18.592;2024-03-25T04:22:03;34.53;;;14.63;;
67248;SDS011;63247;54.300;18.592;2024-03-25T04:24:29;35.23;;;17.13;;
67248;SDS011;63247;54.300;18.592;2024-03-25T04:26:54;36.67;;;17.90;;
67248;SDS011;63247;54.300;18.592;2024-03-25T04:29:19;28.92;;;12.07;;
67248;SDS011;63247;54.300;18.592;2024-03-25T04:31:45;31.30;;;12.83;;
67248;SDS011;63247;54.300;18.592;2024-03-25T04:34:10;32.00;;;12.97;;
67248;SDS011;63247;54.300;18.592;2024-03-25T04:36:36;29.67;;;12.70;;
67248;SDS011;63247;54.300;18.592;2024-03-25T04:39:01;31.70;;;13.33;;
67248;SDS011;63247;54.300;18.592;2024-03-25T04:41:27;32.63;;;12.50;;
67248;SDS011;63247;54.300;18.592;2024-03-25T04:43:52;32.10;;;14.33;;
67248;SDS011;63247;54.300;18.592;2024-03-25T04:46:18;31.87;;;13.37;;
67248;SDS011;63247;54.300;18.592;2024-03-25T04:48:43;34.53;;;13.03;;
67248;SDS011;63247;54.300;18.592;2024-03-25T04:51:09;30.40;;;12.80;;
67248;SDS011;63247;54.300;18.592;2024-03-25T04:53:34;34.30;;;13.60;;
67248;SDS011;63247;54.300;18.592;2024-03-25T04:56:00;33.15;;;13.88;;
67248;SDS011;63247;54.300;18.592;2024-03-25T04:58:26;32.30;;;13.70;;
67248;SDS011;63247;54.300;18.592;2024-03-25T05:00:51;31.87;;;14.37;;
67248;SDS011;63247;54.300;18.592;2024-03-25T05:03:17;36.65;;;14.82;;
67248;SDS011;63247;54.300;18.592;2024-03-25T05:05:43;39.78;;;16.00;;
67248;SDS011;63247;54.300;18.592;2024-03-25T05:08:09;41.03;;;18.23;;
67248;SDS011;63247;54.300;18.592;2024-03-25T05:10:34;35.90;;;15.40;;
67248;SDS011;63247;54.300;18.592;2024-03-25T05:12:59;38.57;;;17.97;;
67248;SDS011;63247;54.300;18.592;2024-03-25T05:15:25;40.63;;;17.92;;
67248;SDS011;63247;54.300;18.592;2024-03-25T05:17:50;38.40;;;15.60;;
67248;SDS011;63247;54.300;18.592;2024-03-25T05:20:16;35.50;;;15.23;;
67248;SDS011;63247;54.300;18.592;2024-03-25T05:22:41;37.80;;;17.53;;
67248;SDS011;63247;54.300;18.592;2024-03-25T05:25:07;33.37;;;14.50;;
67248;SDS011;63247;54.300;18.592;2024-03-25T05:27:32;37.75;;;15.73;;
67248;SDS011;63247;54.300;18.592;2024-03-25T05:29:58;33.53;;;14.50;;
67248;SDS011;63247;54.300;18.592;2024-03-25T05:32:23;33.43;;;14.43;;
67248;SDS011;63247;54.300;18.592;2024-03-25T05:34:49;34.50;;;13.63;;
67248;SDS011;63247;54.300;18.592;2024-03-25T05:37:14;36.77;;;15.33;;
67248;SDS011;63247;54.300;18.592;2024-03-25T05:39:40;40.43;;;15.90;;
67248;SDS011;63247;54.300;18.592;2024-03-25T05:42:05;37.47;;;15.97;;
67248;SDS011;63247;54.300;18.592;2024-03-25T05:44:31;43.72;;;16.90;;
67248;SDS011;63247;54.300;18.592;2024-03-25T05:46:56;43.70;;;16.43;;
67248;SDS011;63247;54.300;18.592;2024-03-25T05:49:22;47.63;;;17.13;;
67248;SDS011;63247;54.300;18.592;2024-03-25T05:51:47;47.80;;;17.75;;
67248;SDS011;63247;54.300;18.592;2024-03-25T05:54:13;36.73;;;15.87;;
67248;SDS011;63247;54.300;18.592;2024-03-25T05:56:38;39.83;;;16.77;;
67248;SDS011;63247;54.300;18.592;2024-03-25T05:59:04;43.20;;;17.53;;
67248;SDS011;63247;54.300;18.592;2024-03-25T06:01:29;42.47;;;18.00;;
67248;SDS011;63247;54.300;18.592;2024-03-25T06:03:54;45.00;;;17.67;;
67248;SDS011;63247;54.300;18.592;2024-03-25T06:06:20;40.50;;;15.85;;
67248;SDS011;63247;54.300;18.592;2024-03-25T06:08:45;40.13;;;15.83;;
67248;SDS011;63247;54.300;18.592;2024-03-25T06:11:11;43.40;;;17.10;;
67248;SDS011;63247;54.300;18.592;2024-03-25T06:13:36;39.93;;;17.13;;
67248;SDS011;63247;54.300;18.592;2024-03-25T06:16:02;40.30;;;17.75;;
67248;SDS011;63247;54.300;18.592;2024-03-25T06:18:27;42.63;;;17.97;;
67248;SDS011;63247;54.300;18.592;2024-03-25T06:20:53;42.97;;;17.87;;
67248;SDS011;63247;54.300;18.592;2024-03-25T06:23:28;123.63;;;53.25;;
67248;SDS011;63247;54.300;18.592;2024-03-25T06:25:54;66.63;;;29.88;;
67248;SDS011;63247;54.300;18.592;2024-03-25T06:28:20;44.85;;;21.60;;
67248;SDS011;63247;54.300;18.592;2024-03-25T06:30:46;51.35;;;20.88;;
67248;SDS011;63247;54.300;18.592;2024-03-25T06:33:31;50.57;;;18.17;;
67248;SDS011;63247;54.300;18.592;2024-03-25T06:36:15;42.20;;;17.83;;
67248;SDS011;63247;54.300;18.592;2024-03-25T06:38:41;38.47;;;16.27;;
67248;SDS011;63247;54.300;18.592;2024-03-25T06:41:06;42.53;;;16.57;;
67248;SDS011;63247;54.300;18.592;2024-03-25T06:43:32;41.37;;;17.67;;
67248;SDS011;63247;54.300;18.592;2024-03-25T06:45:57;41.97;;;17.17;;
67248;SDS011;63247;54.300;18.592;2024-03-25T06:48:23;41.80;;;17.42;;
67248;SDS011;63247;54.300;18.592;2024-03-25T06:50:55;42.87;;;17.53;;
67248;SDS011;63247;54.300;18.592;2024-03-25T06:53:21;46.30;;;18.77;;
67248;SDS011;63247;54.300;18.592;2024-03-25T06:55:53;46.90;;;18.93;;
67248;SDS011;63247;54.300;18.592;2024-03-25T06:58:22;48.85;;;19.02;;
67248;SDS011;63247;54.300;18.592;2024-03-25T07:00:49;43.93;;;18.73;;
67248;SDS011;63247;54.300;18.592;2024-03-25T07:03:18;45.83;;;19.15;;
67248;SDS011;63247;54.300;18.592;2024-03-25T07:05:45;48.22;;;19.90;;
67248;SDS011;63247;54.300;18.592;2024-03-25T07:08:15;41.35;;;18.63;;
67248;SDS011;63247;54.300;18.592;2024-03-25T07:10:44;44.53;;;18.13;;
67248;SDS011;63247;54.300;18.592;2024-03-25T07:13:10;41.42;;;18.40;;
67248;SDS011;63247;54.300;18.592;2024-03-25T07:15:36;42.17;;;18.45;;
67248;SDS011;63247;54.300;18.592;2024-03-25T07:18:01;46.70;;;18.47;;
67248;SDS011;63247;54.300;18.592;2024-03-25T07:20:28;48.85;;;19.73;;
67248;SDS011;63247;54.300;18.592;2024-03-25T07:22:54;46.30;;;19.17;;
67248;SDS011;63247;54.300;18.592;2024-03-25T07:25:20;47.03;;;20.67;;
67248;SDS011;63247;54.300;18.592;2024-03-25T07:27:46;195.90;;;91.38;;
67248;SDS011;63247;54.300;18.592;2024-03-25T07:30:12;81.73;;;33.73;;
67248;SDS011;63247;54.300;18.592;2024-03-25T07:32:37;47.65;;;18.60;;
67248;SDS011;63247;54.300;18.592;2024-03-25T07:35:03;46.33;;;19.40;;
67248;SDS011;63247;54.300;18.592;2024-03-25T07:37:30;41.97;;;18.50;;
67248;SDS011;63247;54.300;18.592;2024-03-25T07:39:55;40.67;;;16.75;;
67248;SDS011;63247;54.300;18.592;2024-03-25T07:42:21;37.13;;;16.40;;
67248;SDS011;63247;54.300;18.592;2024-03-25T07:44:46;34.43;;;14.37;;
67248;SDS011;63247;54.300;18.592;2024-03-25T07:47:12;35.77;;;14.80;;
67248;SDS011;63247;54.300;18.592;2024-03-25T07:49:37;37.33;;;14.77;;
67248;SDS011;63247;54.300;18.592;2024-03-25T07:52:04;27.92;;;12.85;;
67248;SDS011;63247;54.300;18.592;2024-03-25T07:54:31;26.92;;;11.88;;
67248;SDS011;63247;54.300;18.592;2024-03-25T07:56:56;30.17;;;12.33;;
67248;SDS011;63247;54.300;18.592;2024-03-25T07:59:22;27.13;;;11.43;;
67248;SDS011;63247;54.300;18.592;2024-03-25T08:01:47;29.83;;;13.32;;
67248;SDS011;63247;54.300;18.592;2024-03-25T08:04:12;27.25;;;11.88;;
67248;SDS011;63247;54.300;18.592;2024-03-25T08:06:38;30.63;;;12.10;;
67248;SDS011;63247;54.300;18.592;2024-03-25T08:09:03;27.30;;;11.70;;
67248;SDS011;63247;54.300;18.592;2024-03-25T08:11:32;27.75;;;11.30;;
67248;SDS011;63247;54.300;18.592;2024-03-25T08:13:57;26.77;;;10.95;;
67248;SDS011;63247;54.300;18.592;2024-03-25T08:16:23;27.03;;;12.03;;
67248;SDS011;63247;54.300;18.592;2024-03-25T08:18:48;26.37;;;11.67;;
67248;SDS011;63247;54.300;18.592;2024-03-25T08:21:15;25.75;;;11.77;;
67248;SDS011;63247;54.300;18.592;2024-03-25T08:23:40;25.95;;;11.68;;
67248;SDS011;63247;54.300;18.592;2024-03-25T08:26:06;30.47;;;11.53;;
67248;SDS011;63247;54.300;18.592;2024-03-25T08:28:32;26.00;;;11.43;;
67248;SDS011;63247;54.300;18.592;2024-03-25T08:30:57;23.00;;;10.85;;
67248;SDS011;63247;54.300;18.592;2024-03-25T08:33:23;25.40;;;10.90;;
67248;SDS011;63247;54.300;18.592;2024-03-25T08:35:48;27.87;;;11.50;;
67248;SDS011;63247;54.300;18.592;2024-03-25T08:38:14;22.30;;;10.73;;
67248;SDS011;63247;54.300;18.592;2024-03-25T08:40:39;21.75;;;9.88;;
67248;SDS011;63247;54.300;18.592;2024-03-25T08:43:05;21.50;;;10.10;;
67248;SDS011;63247;54.300;18.592;2024-03-25T08:45:31;25.65;;;10.38;;
67248;SDS011;63247;54.300;18.592;2024-03-25T08:47:57;32.55;;;13.63;;
67248;SDS011;63247;54.300;18.592;2024-03-25T08:50:22;24.23;;;10.40;;
67248;SDS011;63247;54.300;18.592;2024-03-25T08:52:48;35.97;;;14.03;;
67248;SDS011;63247;54.300;18.592;2024-03-25T08:55:13;28.03;;;10.43;;
67248;SDS011;63247;54.300;18.592;2024-03-25T08:57:38;28.00;;;13.30;;
67248;SDS011;63247;54.300;18.592;2024-03-25T09:00:04;26.73;;;11.20;;
67248;SDS011;63247;54.300;18.592;2024-03-25T09:02:35;25.50;;;11.40;;
67248;SDS011;63247;54.300;18.592;2024-03-25T09:05:03;23.20;;;10.30;;
67248;SDS011;63247;54.300;18.592;2024-03-25T09:07:35;22.52;;;10.32;;
67248;SDS011;63247;54.300;18.592;2024-03-25T09:10:01;29.35;;;11.50;;
67248;SDS011;63247;54.300;18.592;2024-03-25T09:12:45;22.85;;;10.63;;
67248;SDS011;63247;54.300;18.592;2024-03-25T09:15:12;20.37;;;8.40;;
67248;SDS011;63247;54.300;18.592;2024-03-25T09:17:37;21.42;;;10.38;;
67248;SDS011;63247;54.300;18.592;2024-03-25T09:20:04;20.40;;;8.98;;
67248;SDS011;63247;54.300;18.592;2024-03-25T09:22:41;18.38;;;8.48;;
67248;SDS011;63247;54.300;18.592;2024-03-25T09:25:06;17.70;;;8.57;;
67248;SDS011;63247;54.300;18.592;2024-03-25T09:27:32;21.13;;;9.30;;
67248;SDS011;63247;54.300;18.592;2024-03-25T09:29:57;20.93;;;9.70;;
67248;SDS011;63247;54.300;18.592;2024-03-25T09:32:22;21.05;;;9.77;;
67248;SDS011;63247;54.300;18.592;2024-03-25T09:34:48;20.27;;;9.70;;
67248;SDS011;63247;54.300;18.592;2024-03-25T09:37:15;20.67;;;9.77;;
67248;SDS011;63247;54.300;18.592;2024-03-25T09:39:40;24.77;;;9.70;;
67248;SDS011;63247;54.300;18.592;2024-03-25T09:42:06;20.45;;;9.43;;
67248;SDS011;63247;54.300;18.592;2024-03-25T09:44:33;19.02;;;8.80;;
67248;SDS011;63247;54.300;18.592;2024-03-25T09:46:59;20.30;;;8.60;;
67248;SDS011;63247;54.300;18.592;2024-03-25T09:49:25;20.33;;;9.00;;
67248;SDS011;63247;54.300;18.592;2024-03-25T09:51:53;21.17;;;8.43;;
67248;SDS011;63247;54.300;18.592;2024-03-25T09:54:18;19.77;;;9.07;;
67248;SDS011;63247;54.300;18.592;2024-03-25T09:56:44;18.70;;;8.75;;
67248;SDS011;63247;54.300;18.592;2024-03-25T09:59:10;16.87;;;8.17;;
67248;SDS011;63247;54.300;18.592;2024-03-25T10:01:36;16.13;;;7.75;;
67248;SDS011;63247;54.300;18.592;2024-03-25T10:04:01;15.53;;;6.77;;
67248;SDS011;63247;54.300;18.592;2024-03-25T10:06:27;18.48;;;8.02;;
67248;SDS011;63247;54.300;18.592;2024-03-25T10:08:53;15.53;;;7.43;;
67248;SDS011;63247;54.300;18.592;2024-03-25T10:11:19;15.00;;;7.13;;
67248;SDS011;63247;54.300;18.592;2024-03-25T10:13:45;15.70;;;7.85;;
67248;SDS011;63247;54.300;18.592;2024-03-25T10:16:10;16.73;;;7.60;;
67248;SDS011;63247;54.300;18.592;2024-03-25T10:18:36;16.02;;;6.75;;
67248;SDS011;63247;54.300;18.592;2024-03-25T10:21:02;17.07;;;7.10;;
67248;SDS011;63247;54.300;18.592;2024-03-25T10:23:28;16.73;;;7.80;;
67248;SDS011;63247;54.300;18.592;2024-03-25T10:25:54;17.47;;;7.97;;
67248;SDS011;63247;54.300;18.592;2024-03-25T10:28:20;15.60;;;7.70;;
67248;SDS011;63247;54.300;18.592;2024-03-25T10:30:46;16.27;;;7.73;;
67248;SDS011;63247;54.300;18.592;2024-03-25T10:33:12;16.13;;;8.00;;
67248;SDS011;63247;54.300;18.592;2024-03-25T10:35:38;17.63;;;7.43;;
67248;SDS011;63247;54.300;18.592;2024-03-25T10:38:06;22.15;;;8.70;;
67248;SDS011;63247;54.300;18.592;2024-03-25T10:40:38;15.50;;;6.67;;
67248;SDS011;63247;54.300;18.592;2024-03-25T10:43:08;15.52;;;6.78;;
67248;SDS011;63247;54.300;18.592;2024-03-25T10:45:35;19.20;;;7.53;;
67248;SDS011;63247;54.300;18.592;2024-03-25T10:48:03;14.55;;;6.53;;
67248;SDS011;63247;54.300;18.592;2024-03-25T10:50:47;13.23;;;6.35;;
67248;SDS011;63247;54.300;18.592;2024-03-25T10:53:17;16.80;;;7.13;;
67248;SDS011;63247;54.300;18.592;2024-03-25T10:55:44;16.00;;;7.22;;
67248;SDS011;63247;54.300;18.592;2024-03-25T10:58:15;16.45;;;7.68;;
67248;SDS011;63247;54.300;18.592;2024-03-25T11:00:42;16.02;;;6.57;;
67248;SDS011;63247;54.300;18.592;2024-03-25T11:03:08;16.65;;;7.35;;
67248;SDS011;63247;54.300;18.592;2024-03-25T11:05:34;19.23;;;7.50;;
67248;SDS011;63247;54.300;18.592;2024-03-25T11:08:12;17.15;;;7.70;;
67248;SDS011;63247;54.300;18.592;2024-03-25T11:10:39;15.18;;;7.00;;
67248;SDS011;63247;54.300;18.592;2024-03-25T11:13:09;17.33;;;7.10;;
67248;SDS011;63247;54.300;18.592;2024-03-25T11:15:37;15.43;;;6.93;;
67248;SDS011;63247;54.300;18.592;2024-03-25T11:18:10;15.40;;;6.78;;
67248;SDS011;63247;54.300;18.592;2024-03-25T11:20:39;17.63;;;6.93;;
67248;SDS011;63247;54.300;18.592;2024-03-25T11:23:08;15.98;;;6.72;;
67248;SDS011;63247;54.300;18.592;2024-03-25T11:25:36;15.70;;;6.57;;
67248;SDS011;63247;54.300;18.592;2024-03-25T11:28:01;13.45;;;6.10;;
67248;SDS011;63247;54.300;18.592;2024-03-25T11:30:27;13.30;;;6.47;;
67248;SDS011;63247;54.300;18.592;2024-03-25T11:32:55;14.30;;;6.17;;
67248;SDS011;63247;54.300;18.592;2024-03-25T11:35:20;14.48;;;6.00;;
67248;SDS011;63247;54.300;18.592;2024-03-25T11:37:46;12.65;;;6.00;;
67248;SDS011;63247;54.300;18.592;2024-03-25T11:40:13;13.63;;;5.63;;
67248;SDS011;63247;54.300;18.592;2024-03-25T11:42:42;9.82;;;4.40;;
67248;SDS011;63247;54.300;18.592;2024-03-25T11:45:15;9.55;;;4.40;;
67248;SDS011;63247;54.300;18.592;2024-03-25T11:47:45;10.02;;;4.25;;
67248;SDS011;63247;54.300;18.592;2024-03-25T11:50:12;7.80;;;3.78;;
67248;SDS011;63247;54.300;18.592;2024-03-25T11:52:39;8.80;;;4.10;;
67248;SDS011;63247;54.300;18.592;2024-03-25T11:55:05;9.65;;;4.60;;
67248;SDS011;63247;54.300;18.592;2024-03-25T11:57:33;9.88;;;4.30;;
67248;SDS011;63247;54.300;18.592;2024-03-25T11:59:59;9.70;;;4.40;;
67248;SDS011;63247;54.300;18.592;2024-03-25T12:02:25;10.53;;;4.70;;
67248;SDS011;63247;54.300;18.592;2024-03-25T12:04:51;9.50;;;4.32;;
67248;SDS011;63247;54.300;18.592;2024-03-25T12:07:16;9.00;;;3.80;;
67248;SDS011;63247;54.300;18.592;2024-03-25T12:09:42;10.00;;;4.00;;
67248;SDS011;63247;54.300;18.592;2024-03-25T12:12:26;8.43;;;3.80;;
67248;SDS011;63247;54.300;18.592;2024-03-25T12:14:53;10.93;;;4.60;;
67248;SDS011;63247;54.300;18.592;2024-03-25T12:17:19;8.60;;;4.00;;
67248;SDS011;63247;54.300;18.592;2024-03-25T12:19:57;8.75;;;3.95;;
67248;SDS011;63247;54.300;18.592;2024-03-25T12:22:24;8.90;;;3.90;;
67248;SDS011;63247;54.300;18.592;2024-03-25T12:24:51;8.45;;;4.05;;
67248;SDS011;63247;54.300;18.592;2024-03-25T12:27:16;8.87;;;4.10;;
67248;SDS011;63247;54.300;18.592;2024-03-25T12:29:42;8.37;;;4.00;;
67248;SDS011;63247;54.300;18.592;2024-03-25T12:32:09;10.40;;;3.80;;
67248;SDS011;63247;54.300;18.592;2024-03-25T12:34:35;9.10;;;4.20;;
67248;SDS011;63247;54.300;18.592;2024-03-25T12:37:01;9.33;;;4.20;;
67248;SDS011;63247;54.300;18.592;2024-03-25T12:39:29;8.55;;;4.30;;
67248;SDS011;63247;54.300;18.592;2024-03-25T12:41:55;11.50;;;4.77;;
67248;SDS011;63247;54.300;18.592;2024-03-25T12:44:21;11.50;;;4.50;;
67248;SDS011;63247;54.300;18.592;2024-03-25T12:46:47;10.15;;;3.88;;
67248;SDS011;63247;54.300;18.592;2024-03-25T12:49:12;12.27;;;4.93;;
67248;SDS011;63247;54.300;18.592;2024-03-25T12:51:38;9.03;;;3.30;;
67248;SDS011;63247;54.300;18.592;2024-03-25T12:54:03;10.47;;;3.50;;
67248;SDS011;63247;54.300;18.592;2024-03-25T12:56:28;9.95;;;3.50;;
67248;SDS011;63247;54.300;18.592;2024-03-25T12:58:54;7.88;;;3.33;;
67248;SDS011;63247;54.300;18.592;2024-03-25T13:01:19;11.53;;;3.50;;
67248;SDS011;63247;54.300;18.592;2024-03-25T13:03:45;7.20;;;2.60;;
67248;SDS011;63247;54.300;18.592;2024-03-25T13:06:10;5.23;;;2.20;;
67248;SDS011;63247;54.300;18.592;2024-03-25T13:08:35;6.23;;;2.30;;
67248;SDS011;63247;54.300;18.592;2024-03-25T13:11:01;6.47;;;2.40;;
67248;SDS011;63247;54.300;18.592;2024-03-25T13:13:27;6.33;;;2.87;;
67248;SDS011;63247;54.300;18.592;2024-03-25T13:15:52;6.07;;;2.95;;
67248;SDS011;63247;54.300;18.592;2024-03-25T13:18:18;7.80;;;2.90;;
67248;SDS011;63247;54.300;18.592;2024-03-25T13:20:43;7.27;;;3.37;;
67248;SDS011;63247;54.300;18.592;2024-03-25T13:23:09;11.18;;;4.28;;
67248;SDS011;63247;54.300;18.592;2024-03-25T13:25:34;7.97;;;3.00;;
67248;SDS011;63247;54.300;18.592;2024-03-25T13:28:00;8.50;;;3.37;;
67248;SDS011;63247;54.300;18.592;2024-03-25T13:30:25;10.17;;;3.90;;
67248;SDS011;63247;54.300;18.592;2024-03-25T13:32:52;14.07;;;3.60;;
67248;SDS011;63247;54.300;18.592;2024-03-25T13:35:17;11.25;;;3.55;;
67248;SDS011;63247;54.300;18.592;2024-03-25T13:37:43;9.87;;;3.50;;
67248;SDS011;63247;54.300;18.592;2024-03-25T13:40:09;7.65;;;3.65;;
67248;SDS011;63247;54.300;18.592;2024-03-25T13:42:36;7.65;;;3.22;;
67248;SDS011;63247;54.300;18.592;2024-03-25T13:45:03;8.27;;;3.33;;
67248;SDS011;63247;54.300;18.592;2024-03-25T13:47:29;8.77;;;3.50;;
67248;SDS011;63247;54.300;18.592;2024-03-25T13:50:04;8.40;;;3.70;;
67248;SDS011;63247;54.300;18.592;2024-03-25T13:52:34;7.78;;;3.60;;
67248;SDS011;63247;54.300;18.592;2024-03-25T13:54:59;6.70;;;3.10;;
67248;SDS011;63247;54.300;18.592;2024-03-25T13:57:25;7.65;;;3.00;;
67248;SDS011;63247;54.300;18.592;2024-03-25T13:59:51;7.93;;;3.63;;
67248;SDS011;63247;54.300;18.592;2024-03-25T14:02:16;7.60;;;3.13;;
67248;SDS011;63247;54.300;18.592;2024-03-25T14:04:41;10.70;;;4.18;;
67248;SDS011;63247;54.300;18.592;2024-03-25T14:07:07;10.03;;;4.30;;
67248;SDS011;63247;54.300;18.592;2024-03-25T14:09:32;14.57;;;5.10;;
67248;SDS011;63247;54.300;18.592;2024-03-25T14:11:58;11.93;;;4.67;;
67248;SDS011;63247;54.300;18.592;2024-03-25T14:14:23;9.40;;;4.60;;